Time;durP1;ratioP1;P1;durP2;ratioP2;P2;SDS_P1;SDS_P2;PMS_P1;PMS_P2;Temp;Humidity;BMP_temperature;BMP_pressure;BME280_temperature;BME280_humidity;BME280_pressure;Samples;Min_cycle;Max_cycle;Signal;HPM_P1;HPM_P2
2023/12/27 00:00:28;;;;;;;14.18;4.22;;;;;;;7.34;80.88;101063.38;2520134;28;20050;-80
2023/12/27 00:01:42;;;;;;;11.13;3.85;;;;;;;7.35;81.21;101067.72;2524713;28;20092;-78
2023/12/27 00:02:58;;;;;;;9.70;3.90;;;;;;;7.34;81.20;101051.25;2525454;28;20403;-79
2023/12/27 00:04:13;;;;;;;14.88;8.02;;;;;;;7.36;81.24;101049.56;2521859;28;20057;-79
2023/12/27 00:05:28;;;;;;;10.10;3.92;;;;;;;7.38;81.25;101046.97;2515491;28;20042;-78
2023/12/27 00:06:41;;;;;;;6.60;4.28;;;;;;;7.38;81.27;101057.34;2521477;28;20038;-79
2023/12/27 00:07:56;;;;;;;6.30;4.75;;;;;;;7.38;81.05;101054.75;2525172;28;20426;-78
2023/12/27 00:09:09;;;;;;;7.57;5.15;;;;;;;7.36;81.02;101056.47;2523067;28;20046;-79
2023/12/27 00:10:23;;;;;;;11.43;4.43;;;;;;;7.34;81.09;101043.47;2514661;28;20042;-79
2023/12/27 00:11:37;;;;;;;13.60;4.38;;;;;;;7.35;80.80;101050.41;2514842;28;20047;-78
2023/12/27 00:12:51;;;;;;;16.17;6.00;;;;;;;7.35;81.09;101050.41;2523306;28;20419;-78
2023/12/27 00:14:05;;;;;;;7.50;3.25;;;;;;;7.36;80.79;101046.09;2524305;28;20052;-79
2023/12/27 00:15:19;;;;;;;6.88;3.15;;;;;;;7.35;80.78;101047.81;2521610;28;20042;-79
2023/12/27 00:16:32;;;;;;;9.82;4.13;;;;;;;7.36;80.94;101041.78;2515048;28;20046;-78
2023/12/27 00:17:47;;;;;;;10.75;4.22;;;;;;;7.37;81.00;101043.50;2515102;28;20047;-79
2023/12/27 00:19:02;;;;;;;11.23;4.35;;;;;;;7.37;80.85;101037.44;2515804;28;20050;-79
2023/12/27 00:20:17;;;;;;;9.07;4.43;;;;;;;7.37;81.07;101032.25;2525500;28;20050;-79
2023/12/27 00:21:30;;;;;;;8.15;3.42;;;;;;;7.39;81.02;101035.75;2525644;28;20050;-79
2023/12/27 00:22:44;;;;;;;8.63;3.65;;;;;;;7.39;81.00;101034.00;2517668;28;20042;-80
2023/12/27 00:23:58;;;;;;;7.35;3.60;;;;;;;7.41;81.14;101041.81;2516110;28;20049;-80
2023/12/27 00:25:12;;;;;;;11.48;4.78;;;;;;;7.43;80.96;101043.59;2522755;28;20050;-79
2023/12/27 00:26:26;;;;;;;11.70;3.80;;;;;;;7.41;81.04;101040.09;2519734;28;20046;-80
2023/12/27 00:27:40;;;;;;;7.63;5.25;;;;;;;7.41;80.95;101045.28;2519100;28;20042;-80
2023/12/27 00:28:53;;;;;;;7.85;3.72;;;;;;;7.43;80.98;101038.38;2524008;28;20049;-81
2023/12/27 00:30:08;;;;;;;9.73;3.55;;;;;;;7.44;80.88;101034.06;2517232;28;20039;-81
2023/12/27 00:31:22;;;;;;;6.75;3.58;;;;;;;7.42;80.65;101028.84;2520815;28;20474;-81
2023/12/27 00:32:36;;;;;;;8.52;3.58;;;;;;;7.43;80.75;101022.81;2522063;28;20046;-79
2023/12/27 00:33:50;;;;;;;6.38;4.40;;;;;;;7.43;80.87;101033.19;2517647;28;20067;-79
2023/12/27 00:35:07;;;;;;;7.85;3.83;;;;;;;7.45;80.81;101028.00;2523770;28;20045;-81
2023/12/27 00:36:21;;;;;;;10.43;3.75;;;;;;;7.45;80.76;101021.94;2516541;28;20073;-80
2023/12/27 00:37:35;;;;;;;10.65;4.15;;;;;;;7.45;80.73;101021.94;2516824;28;20080;-80
2023/12/27 00:38:48;;;;;;;6.72;3.83;;;;;;;7.42;80.63;101021.06;2522644;28;20038;-80
2023/12/27 00:40:03;;;;;;;8.18;3.92;;;;;;;7.42;80.62;101022.78;2524568;28;20046;-79
2023/12/27 00:41:17;;;;;;;13.40;4.63;;;;;;;7.40;80.48;101032.28;2517024;28;20050;-80
2023/12/27 00:42:31;;;;;;;9.77;3.83;;;;;;;7.38;80.29;101032.28;2516910;28;20054;-80
2023/12/27 00:43:45;;;;;;;7.68;4.18;;;;;;;7.36;80.44;101035.72;2525253;28;20054;-80
2023/12/27 00:44:59;;;;;;;9.57;3.70;;;;;;;7.35;80.27;101037.41;2516859;28;20593;-78
2023/12/27 00:46:13;;;;;;;9.02;4.00;;;;;;;7.34;80.60;101027.03;2517854;28;20054;-80
2023/12/27 00:47:27;;;;;;;8.32;3.20;;;;;;;7.32;80.61;101034.78;2524689;28;20042;-80
2023/12/27 00:48:40;;;;;;;10.65;3.63;;;;;;;7.30;80.43;101036.50;2525041;28;20049;-79
2023/12/27 00:49:55;;;;;;;7.13;5.80;;;;;;;7.29;80.44;101028.72;2524615;28;20053;-80
2023/12/27 00:51:18;;;;;;;8.02;4.00;;;;;;;7.27;80.41;101028.69;2517396;28;20043;-80
2023/12/27 00:52:32;;;;;;;6.57;3.63;;;;;;;7.25;80.43;101038.16;2521943;28;20392;-78
2023/12/27 00:53:46;;;;;;;8.80;4.57;;;;;;;7.23;80.77;101034.72;2515887;28;20057;-79
2023/12/27 00:55:01;;;;;;;14.63;3.45;;;;;;;7.21;80.48;101033.81;2525894;28;20049;-79
2023/12/27 00:56:15;;;;;;;7.90;3.50;;;;;;;7.20;80.41;101037.25;2526037;28;20057;-80
2023/12/27 00:57:29;;;;;;;9.80;3.78;;;;;;;7.19;80.75;101038.09;2525721;28;20100;-80
2023/12/27 00:58:43;;;;;;;8.02;4.03;;;;;;;7.17;80.63;101032.03;2519257;28;20054;-79
2023/12/27 00:59:57;;;;;;;8.82;4.03;;;;;;;7.15;80.53;101036.31;2524508;28;20046;-80
2023/12/27 01:01:11;;;;;;;9.38;4.20;;;;;;;7.14;80.65;101034.59;2524130;28;20057;-80
2023/12/27 01:02:25;;;;;;;7.55;3.22;;;;;;;7.11;80.87;101024.19;2516275;28;20035;-79
2023/12/27 01:03:39;;;;;;;15.25;5.22;;;;;;;7.09;80.41;101020.69;2521735;28;20054;-80
2023/12/27 01:04:54;;;;;;;8.68;4.20;;;;;;;7.07;80.74;101019.78;2518324;28;20046;-82
2023/12/27 01:06:08;;;;;;;7.03;3.60;;;;;;;7.03;80.59;101023.22;2525670;28;20042;-80
2023/12/27 01:07:24;;;;;;;8.88;4.22;;;;;;;7.00;80.63;101029.25;2522576;28;20050;-80
2023/12/27 01:08:37;;;;;;;12.52;5.75;;;;;;;6.96;80.64;101027.44;2515999;28;20389;-80
2023/12/27 01:09:52;;;;;;;8.75;4.03;;;;;;;6.94;80.73;101035.25;2516126;28;20061;-80
2023/12/27 01:11:05;;;;;;;8.32;4.88;;;;;;;6.93;80.80;101035.22;2516973;28;20081;-81
2023/12/27 01:12:20;;;;;;;11.38;4.30;;;;;;;6.93;80.89;101036.06;2520075;28;20581;-79
2023/12/27 01:13:34;;;;;;;11.50;4.15;;;;;;;6.94;80.79;101027.44;2526758;28;20689;-80
2023/12/27 01:14:48;;;;;;;9.00;5.03;;;;;;;6.95;81.06;101030.91;2526225;28;20042;-79
2023/12/27 01:16:02;;;;;;;12.05;4.60;;;;;;;6.95;81.10;101023.13;2526257;28;20050;-78
2023/12/27 01:17:16;;;;;;;10.50;4.35;;;;;;;6.95;81.10;101026.59;2525995;28;20385;-79
2023/12/27 01:18:30;;;;;;;9.23;5.10;;;;;;;6.96;80.91;101030.91;2526086;28;20053;-79
2023/12/27 01:19:44;;;;;;;12.70;4.53;;;;;;;6.96;81.14;101030.06;2526336;28;20042;-79
2023/12/27 01:20:58;;;;;;;6.95;3.65;;;;;;;6.95;81.20;101029.19;2526437;28;20041;-79
2023/12/27 01:22:12;;;;;;;10.30;4.43;;;;;;;6.95;81.09;101024.00;2523796;28;20399;-80
2023/12/27 01:23:27;;;;;;;6.55;5.30;;;;;;;6.95;81.22;101034.38;2520794;28;20050;-78
2023/12/27 01:24:42;;;;;;;9.57;4.68;;;;;;;6.95;81.35;101034.38;2520739;28;20507;-79
2023/12/27 01:25:55;;;;;;;12.65;3.40;;;;;;;6.94;81.32;101035.25;2516638;28;20050;-80
2023/12/27 01:27:09;;;;;;;9.93;4.05;;;;;;;6.96;81.38;101040.44;2526151;28;20042;-79
2023/12/27 01:28:23;;;;;;;8.73;4.80;;;;;;;6.96;81.54;101033.50;2526741;28;20050;-79
2023/12/27 01:29:37;;;;;;;19.05;4.45;;;;;;;6.97;81.27;101039.59;2526013;28;20046;-79
2023/12/27 01:30:51;;;;;;;8.93;3.40;;;;;;;6.96;81.64;101035.25;2518642;28;20499;-79
2023/12/27 01:32:06;;;;;;;15.60;3.75;;;;;;;6.97;81.52;101042.19;2515819;28;20042;-79
2023/12/27 01:33:19;;;;;;;11.45;4.57;;;;;;;6.98;81.54;101036.13;2516695;28;20476;-79
2023/12/27 01:34:34;;;;;;;7.75;4.75;;;;;;;7.00;81.76;101034.44;2520631;28;20042;-79
2023/12/27 01:35:47;;;;;;;11.00;4.38;;;;;;;7.03;81.51;101038.78;2526212;28;20046;-79
2023/12/27 01:37:01;;;;;;;7.25;3.45;;;;;;;7.04;81.81;101037.94;2526641;28;20042;-79
2023/12/27 01:38:15;;;;;;;7.32;3.42;;;;;;;7.07;81.78;101040.56;2525705;28;20042;-79
2023/12/27 01:39:30;;;;;;;12.23;3.58;;;;;;;7.08;81.90;101047.50;2526127;28;20046;-79
2023/12/27 01:40:48;;;;;;;5.47;3.42;;;;;;;7.10;81.78;101044.06;2519518;28;20172;-80
2023/12/27 01:42:02;;;;;;;10.52;4.32;;;;;;;7.13;81.78;101046.69;2516281;28;20053;-80
2023/12/27 01:43:16;;;;;;;10.77;4.22;;;;;;;7.16;81.66;101054.50;2515875;28;20050;-79
2023/12/27 01:44:30;;;;;;;5.53;3.72;;;;;;;7.18;81.90;101044.16;2521065;28;20049;-80
2023/12/27 01:45:45;;;;;;;9.93;3.83;;;;;;;7.20;81.86;101038.13;2525668;28;20056;-79
2023/12/27 01:47:00;;;;;;;15.70;5.40;;;;;;;7.22;81.77;101044.19;2518087;28;20049;-80
2023/12/27 01:48:13;;;;;;;7.63;3.75;;;;;;;7.25;81.82;101035.56;2516661;28;20058;-80
2023/12/27 01:49:28;;;;;;;5.00;3.85;;;;;;;7.28;82.03;101033.03;2516668;28;20166;-81
2023/12/27 01:50:42;;;;;;;6.50;3.53;;;;;;;7.27;81.59;101039.06;2516322;28;20057;-81
2023/12/27 01:51:57;;;;;;;6.88;3.95;;;;;;;7.30;81.64;101030.44;2516863;28;20046;-80
2023/12/27 01:53:10;;;;;;;7.50;4.18;;;;;;;7.31;81.58;101032.19;2518541;28;20054;-79
2023/12/27 01:54:25;;;;;;;11.25;5.47;;;;;;;7.32;81.80;101036.53;2526611;28;20499;-79
2023/12/27 01:55:39;;;;;;;8.98;3.83;;;;;;;7.33;81.78;101036.56;2527088;28;20054;-80
2023/12/27 01:56:54;;;;;;;9.00;3.67;;;;;;;7.34;81.55;101024.44;2527244;28;20046;-79
2023/12/27 01:58:10;;;;;;;4.75;3.20;;;;;;;7.34;81.56;101033.09;2526676;28;20046;-80
2023/12/27 01:59:25;;;;;;;7.28;4.65;;;;;;;7.35;81.21;101028.75;2527387;28;20069;-79
2023/12/27 02:00:41;;;;;;;9.40;3.58;;;;;;;7.34;81.16;101022.69;2522227;28;20080;-80
2023/12/27 02:01:56;;;;;;;5.53;3.83;;;;;;;7.34;81.35;101019.25;2517045;28;20157;-80
2023/12/27 02:03:09;;;;;;;7.47;3.33;;;;;;;7.35;81.27;101023.56;2525469;28;20416;-81
2023/12/27 02:04:24;;;;;;;5.07;3.03;;;;;;;7.34;81.43;101021.84;2524531;28;20042;-79
2023/12/27 02:05:38;;;;;;;6.80;3.13;;;;;;;7.34;81.11;101027.91;2526943;28;20049;-78
2023/12/27 02:06:53;;;;;;;12.18;3.20;;;;;;;7.34;81.28;101022.69;2520910;28;20055;-79
2023/12/27 02:08:08;;;;;;;24.02;6.38;;;;;;;7.36;81.29;101025.31;2515644;28;20049;-80
2023/12/27 02:09:23;;;;;;;8.95;3.63;;;;;;;7.36;81.32;101023.59;2536046;22;20073;-80
2023/12/27 02:10:37;;;;;;;10.18;3.05;;;;;;;7.37;81.36;101017.53;2512899;28;20057;-81
2023/12/27 02:11:52;;;;;;;14.57;3.28;;;;;;;7.37;81.29;101027.91;2515566;28;20061;-81
2023/12/27 02:13:06;;;;;;;9.00;3.42;;;;;;;7.38;81.12;101029.69;2514584;28;20042;-80
2023/12/27 02:14:21;;;;;;;7.38;3.30;;;;;;;7.39;81.30;101028.81;2520267;28;20039;-79
2023/12/27 02:15:35;;;;;;;7.40;3.58;;;;;;;7.41;81.31;101024.50;2523927;28;20054;-81
2023/12/27 02:16:50;;;;;;;12.73;3.40;;;;;;;7.42;81.25;101026.25;2523638;28;20052;-80
2023/12/27 02:18:05;;;;;;;8.00;3.50;;;;;;;7.45;81.37;101022.81;2531339;28;20060;-79
2023/12/27 02:19:21;;;;;;;6.47;3.65;;;;;;;7.46;80.98;101029.75;2519059;28;20196;-82
2023/12/27 02:20:34;;;;;;;6.50;3.00;;;;;;;7.49;81.08;101026.31;2520845;28;20037;-81
2023/12/27 02:21:50;;;;;;;5.50;3.60;;;;;;;7.50;81.14;101030.66;2525520;28;20041;-82
2023/12/27 02:23:06;;;;;;;4.13;3.15;;;;;;;7.50;80.94;101026.31;2525765;28;20391;-82
2023/12/27 02:24:22;;;;;;;8.70;4.05;;;;;;;7.50;80.91;101028.91;2525505;28;20054;-79
2023/12/27 02:25:37;;;;;;;4.57;3.30;;;;;;;7.51;81.07;101022.88;2525115;28;20049;-80
2023/12/27 02:26:51;;;;;;;5.13;2.95;;;;;;;7.51;81.19;101019.41;2518675;28;20050;-83
2023/12/27 02:28:05;;;;;;;5.85;3.38;;;;;;;7.50;80.97;101015.94;2516221;28;20046;-81
2023/12/27 02:29:19;;;;;;;5.25;3.10;;;;;;;7.50;80.59;101013.34;2515746;28;20050;-81
2023/12/27 02:30:36;;;;;;;7.43;3.17;;;;;;;7.50;80.77;101010.75;2515921;28;20050;-82
2023/12/27 02:31:50;;;;;;;9.88;3.78;;;;;;;7.50;80.97;101015.94;2516285;28;20431;-82
2023/12/27 02:33:04;;;;;;;6.80;3.47;;;;;;;7.49;80.70;101016.81;2516421;28;20038;-81
2023/12/27 02:34:18;;;;;;;6.78;4.03;;;;;;;7.49;80.55;101010.75;2524931;28;20573;-80
2023/12/27 02:35:32;;;;;;;4.78;3.22;;;;;;;7.49;80.73;101014.22;2520516;28;20402;-80
2023/12/27 02:36:46;;;;;;;6.15;3.88;;;;;;;7.50;80.63;101017.66;2515305;28;20056;-81
2023/12/27 02:38:00;;;;;;;7.90;4.07;;;;;;;7.51;80.48;101017.69;2514891;28;20046;-80
2023/12/27 02:39:14;;;;;;;6.90;3.33;;;;;;;7.51;80.59;101009.00;2515854;28;20046;-79
2023/12/27 02:40:28;;;;;;;4.38;2.85;;;;;;;7.50;80.73;101015.06;2515896;28;20042;-81
2023/12/27 02:41:43;;;;;;;8.75;3.60;;;;;;;7.50;80.78;101010.75;2515009;28;20406;-81
2023/12/27 02:42:57;;;;;;;8.20;2.78;;;;;;;7.49;81.04;101008.16;2515134;28;20419;-81
2023/12/27 02:44:11;;;;;;;13.70;4.22;;;;;;;7.49;80.71;101009.00;2514617;28;20050;-81
2023/12/27 02:45:25;;;;;;;4.70;3.47;;;;;;;7.50;80.61;101002.09;2514346;28;20054;-81
2023/12/27 02:46:39;;;;;;;5.60;3.17;;;;;;;7.47;80.57;100997.72;2519783;28;20042;-80
2023/12/27 02:47:53;;;;;;;6.03;3.38;;;;;;;7.46;80.46;101006.38;2518013;28;20104;-80
2023/12/27 02:49:07;;;;;;;6.00;3.15;;;;;;;7.45;80.60;100999.44;2514448;28;20459;-79
2023/12/27 02:50:20;;;;;;;5.78;3.00;;;;;;;7.46;80.91;100997.69;2514327;28;20042;-82
2023/12/27 02:51:35;;;;;;;7.15;3.35;;;;;;;7.44;80.59;100992.50;2515097;28;20042;-83
2023/12/27 02:52:48;;;;;;;8.35;3.45;;;;;;;7.44;80.64;101000.31;2514507;28;20518;-81
2023/12/27 02:54:03;;;;;;;6.95;3.38;;;;;;;7.45;80.89;100993.38;2513590;28;20050;-80
2023/12/27 02:55:16;;;;;;;6.35;3.92;;;;;;;7.45;80.62;100994.25;2514541;28;20050;-80
2023/12/27 02:56:30;;;;;;;6.05;3.92;;;;;;;7.45;81.12;100998.56;2514767;28;20129;-82
2023/12/27 02:57:45;;;;;;;12.90;3.50;;;;;;;7.45;80.86;101006.34;2514070;28;20411;-81
2023/12/27 02:58:59;;;;;;;10.48;4.20;;;;;;;7.46;80.90;101005.50;2522296;28;20042;-82
2023/12/27 03:00:14;;;;;;;4.45;3.30;;;;;;;7.46;81.01;101001.19;2514554;28;20061;-81
2023/12/27 03:01:28;;;;;;;9.05;4.30;;;;;;;7.46;81.12;101002.91;2515156;28;20046;-82
2023/12/27 03:02:41;;;;;;;5.57;3.65;;;;;;;7.45;81.07;100996.84;2519347;28;20065;-81
2023/12/27 03:03:56;;;;;;;6.15;2.97;;;;;;;7.45;80.97;100995.97;2524137;28;20064;-80
2023/12/27 03:05:09;;;;;;;8.98;5.25;;;;;;;7.43;80.94;100994.25;2524618;28;20049;-81
2023/12/27 03:06:24;;;;;;;7.60;4.18;;;;;;;7.45;80.98;100998.56;2521512;28;20418;-81
2023/12/27 03:07:37;;;;;;;9.88;4.15;;;;;;;7.44;81.18;100997.72;2514454;28;20042;-81
2023/12/27 03:08:53;;;;;;;5.63;3.55;;;;;;;7.42;81.24;100989.88;2514322;28;20057;-79
2023/12/27 03:10:07;;;;;;;5.28;4.13;;;;;;;7.43;81.24;100994.25;2513315;28;20100;-79
2023/12/27 03:11:22;;;;;;;6.55;3.80;;;;;;;7.45;81.23;100994.25;2514097;28;20061;-79
2023/12/27 03:12:35;;;;;;;8.75;3.90;;;;;;;7.44;81.17;100987.31;2514908;28;20133;-80
2023/12/27 03:13:51;;;;;;;7.85;3.53;;;;;;;7.45;81.24;100989.03;2513506;28;20042;-80
2023/12/27 03:15:05;;;;;;;6.75;3.38;;;;;;;7.44;81.31;100987.31;2514482;28;20043;-82
2023/12/27 03:16:20;;;;;;;12.68;3.95;;;;;;;7.43;81.28;100991.66;2514789;28;20057;-80
2023/12/27 03:17:33;;;;;;;11.20;4.30;;;;;;;7.44;81.39;100989.91;2513849;28;20045;-80
2023/12/27 03:18:47;;;;;;;10.48;3.60;;;;;;;7.42;81.72;100992.47;2513622;28;20053;-79
2023/12/27 03:20:01;;;;;;;6.05;3.65;;;;;;;7.42;81.66;100987.28;2513886;28;20042;-80
2023/12/27 03:21:16;;;;;;;15.40;3.80;;;;;;;7.41;81.41;100985.56;2523602;28;20065;-80
2023/12/27 03:22:29;;;;;;;3.75;3.20;;;;;;;7.40;81.32;100986.41;2519941;28;20042;-82
2023/12/27 03:23:43;;;;;;;29.67;7.22;;;;;;;7.40;81.29;100978.59;2513390;28;20053;-81
2023/12/27 03:24:57;;;;;;;8.40;4.07;;;;;;;7.38;81.18;100985.53;2513838;28;20058;-78
2023/12/27 03:26:11;;;;;;;8.07;4.35;;;;;;;7.37;81.27;100990.72;2513042;28;20053;-82
2023/12/27 03:27:25;;;;;;;5.88;3.25;;;;;;;7.35;81.28;100982.03;2514233;28;20050;-81
2023/12/27 03:28:39;;;;;;;4.45;2.85;;;;;;;7.34;81.29;100981.16;2518364;28;20045;-82
2023/12/27 03:29:54;;;;;;;5.80;3.72;;;;;;;7.34;81.46;100981.16;2516129;28;20069;-81
2023/12/27 03:31:08;;;;;;;10.45;4.05;;;;;;;7.34;81.05;100975.97;2513413;28;20050;-81
2023/12/27 03:32:23;;;;;;;7.50;3.78;;;;;;;7.33;81.51;100982.03;2513314;28;20054;-80
2023/12/27 03:33:38;;;;;;;6.78;3.90;;;;;;;7.34;81.40;100977.69;2513339;28;20395;-81
2023/12/27 03:34:51;;;;;;;4.20;3.10;;;;;;;7.33;81.33;100981.13;2519058;28;20046;-78
2023/12/27 03:36:06;;;;;;;7.68;3.70;;;;;;;7.33;81.48;100978.53;2523013;28;20056;-81
2023/12/27 03:37:19;;;;;;;7.40;3.78;;;;;;;7.31;81.52;100968.16;2523001;28;20056;-80
2023/12/27 03:38:34;;;;;;;6.25;3.17;;;;;;;7.31;81.43;100959.50;2522414;28;20128;-80
2023/12/27 03:39:50;;;;;;;7.00;4.15;;;;;;;7.29;81.21;100962.06;2523270;28;20658;-80
2023/12/27 03:41:05;;;;;;;6.18;4.28;;;;;;;7.29;81.30;100969.00;2514879;28;20042;-80
2023/12/27 03:42:19;;;;;;;9.40;4.50;;;;;;;7.29;81.59;100971.59;2512706;28;20069;-81
2023/12/27 03:43:33;;;;;;;4.63;3.28;;;;;;;7.29;81.62;100969.00;2513560;28;20054;-81
2023/12/27 03:44:52;;;;;;;5.82;2.92;;;;;;;7.30;81.65;100968.13;2513035;28;20377;-80
2023/12/27 03:46:08;;;;;;;5.45;3.28;;;;;;;7.27;81.62;100963.78;2512402;28;20046;-80
2023/12/27 03:47:22;;;;;;;6.35;3.65;;;;;;;7.27;81.53;100966.38;2512837;28;20072;-80
2023/12/27 03:48:36;;;;;;;8.20;6.05;;;;;;;7.25;81.26;100960.28;2513139;28;20057;-80
2023/12/27 03:49:50;;;;;;;6.63;3.55;;;;;;;7.25;81.58;100967.22;2518721;28;20065;-79
2023/12/27 03:51:05;;;;;;;8.98;3.70;;;;;;;7.22;81.47;100961.13;2522517;28;20041;-82
2023/12/27 03:52:18;;;;;;;8.13;3.85;;;;;;;7.22;81.44;100962.84;2512377;28;20034;-80
2023/12/27 03:53:33;;;;;;;6.88;3.47;;;;;;;7.20;81.45;100960.25;2525172;28;20077;-78
2023/12/27 03:54:46;;;;;;;7.05;3.45;;;;;;;7.19;81.35;100960.22;2524258;28;20042;-79
2023/12/27 03:56:01;;;;;;;6.18;3.47;;;;;;;7.17;81.46;100956.75;2520809;28;20098;-80
2023/12/27 03:57:14;;;;;;;11.73;4.53;;;;;;;7.15;81.52;100950.66;2521056;28;20050;-78
2023/12/27 03:58:28;;;;;;;8.10;5.32;;;;;;;7.15;81.69;100953.25;2525954;28;20054;-82
2023/12/27 03:59:42;;;;;;;12.05;4.28;;;;;;;7.12;81.60;100953.22;2519836;28;20045;-81
2023/12/27 04:00:56;;;;;;;6.03;3.20;;;;;;;7.11;81.98;100949.78;2518175;28;20511;-82
2023/12/27 04:02:11;;;;;;;5.78;3.67;;;;;;;7.09;81.62;100946.28;2514720;28;20046;-81
2023/12/27 04:03:25;;;;;;;4.38;2.75;;;;;;;7.07;81.50;100942.78;2514508;28;20054;-81
2023/12/27 04:04:39;;;;;;;11.70;4.40;;;;;;;7.05;81.43;100946.22;2514538;28;20042;-81
2023/12/27 04:05:53;;;;;;;5.05;3.00;;;;;;;7.02;81.38;100952.25;2514051;28;20048;-80
2023/12/27 04:07:07;;;;;;;6.43;3.28;;;;;;;7.01;81.55;100947.06;2521820;28;20042;-81
2023/12/27 04:08:21;;;;;;;6.20;3.78;;;;;;;6.98;81.59;100945.31;2517055;28;20050;-81
2023/12/27 04:09:38;;;;;;;3.35;3.05;;;;;;;6.95;81.58;100946.16;2524435;28;20402;-81
2023/12/27 04:10:52;;;;;;;5.28;3.08;;;;;;;6.92;81.80;100933.16;2517656;28;20078;-82
2023/12/27 04:12:06;;;;;;;11.82;4.90;;;;;;;6.87;81.59;100937.41;2514963;28;20046;-81
2023/12/27 04:13:21;;;;;;;6.20;2.90;;;;;;;6.85;81.67;100933.94;2515104;28;20050;-82
2023/12/27 04:14:34;;;;;;;8.77;3.55;;;;;;;6.82;81.55;100930.44;2518259;28;20042;-81
2023/12/27 04:15:49;;;;;;;9.70;3.15;;;;;;;6.79;81.63;100928.69;2523987;28;20050;-82
2023/12/27 04:17:02;;;;;;;6.40;3.05;;;;;;;6.73;81.59;100933.78;2524541;28;20053;-80
2023/12/27 04:18:18;;;;;;;5.00;3.13;;;;;;;6.71;81.47;100940.66;2524053;28;20409;-82
2023/12/27 04:19:32;;;;;;;5.25;3.70;;;;;;;6.66;81.64;100937.16;2520795;28;20407;-82
2023/12/27 04:20:46;;;;;;;6.30;3.50;;;;;;;6.61;81.66;100937.13;2515103;28;20046;-81
2023/12/27 04:21:59;;;;;;;8.20;3.53;;;;;;;6.60;81.63;100937.09;2514071;28;20050;-82
2023/12/27 04:23:14;;;;;;;5.43;3.30;;;;;;;6.57;81.85;100939.66;2514802;28;20495;-81
2023/12/27 04:24:27;;;;;;;9.98;3.95;;;;;;;6.54;81.75;100936.16;2514690;28;20046;-81
2023/12/27 04:25:42;;;;;;;5.75;3.28;;;;;;;6.52;81.88;100937.00;2514240;28;20125;-79
2023/12/27 04:26:55;;;;;;;5.38;3.35;;;;;;;6.48;82.00;100932.59;2516552;28;20100;-82
2023/12/27 04:28:10;;;;;;;12.02;4.15;;;;;;;6.47;81.99;100938.66;2517012;28;20046;-81
2023/12/27 04:29:23;;;;;;;8.70;4.30;;;;;;;6.45;82.01;100942.94;2519183;28;20050;-81
2023/12/27 04:30:37;;;;;;;7.53;3.83;;;;;;;6.42;82.21;100948.97;2526003;28;20042;-82
2023/12/27 04:31:51;;;;;;;15.73;4.13;;;;;;;6.40;82.22;100942.91;2520838;28;20487;-82
2023/12/27 04:33:06;;;;;;;9.15;4.07;;;;;;;6.40;82.11;100950.69;2516128;28;20046;-80
2023/12/27 04:34:20;;;;;;;4.38;3.60;;;;;;;6.40;82.23;100947.19;2515631;28;20117;-82
2023/12/27 04:35:35;;;;;;;6.38;4.30;;;;;;;6.39;82.35;100951.50;2516619;28;20046;-82
2023/12/27 04:36:49;;;;;;;9.75;3.53;;;;;;;6.39;82.33;100954.09;2516345;28;20049;-82
2023/12/27 04:38:03;;;;;;;10.02;4.65;;;;;;;6.40;82.46;100942.00;2516213;28;20054;-80
2023/12/27 04:39:18;;;;;;;10.15;3.88;;;;;;;6.41;82.55;100946.38;2516085;28;20674;-82
2023/12/27 04:40:31;;;;;;;4.78;3.85;;;;;;;6.40;82.34;100944.59;2517019;28;20495;-81
2023/12/27 04:41:45;;;;;;;6.68;3.92;;;;;;;6.40;82.49;100942.00;2516088;28;20057;-82
2023/12/27 04:42:59;;;;;;;5.65;3.47;;;;;;;6.41;82.57;100942.03;2516896;28;20054;-81
2023/12/27 04:44:13;;;;;;;9.50;4.47;;;;;;;6.41;82.60;100942.03;2516792;28;20388;-82
2023/12/27 04:45:27;;;;;;;6.70;4.05;;;;;;;6.41;82.72;100936.00;2516440;28;20369;-81
2023/12/27 04:46:41;;;;;;;8.85;3.20;;;;;;;6.41;82.68;100939.44;2516116;28;20097;-82
2023/12/27 04:47:54;;;;;;;7.88;5.15;;;;;;;6.42;82.82;100930.81;2516252;28;20415;-80
2023/12/27 04:49:09;;;;;;;6.90;3.90;;;;;;;6.41;82.68;100928.22;2524160;28;20052;-82
2023/12/27 04:50:24;;;;;;;10.25;3.95;;;;;;;6.40;82.83;100927.34;2515822;28;20046;-83
2023/12/27 04:51:38;;;;;;;9.20;3.35;;;;;;;6.39;82.93;100932.50;2515978;28;20050;-83
2023/12/27 04:52:52;;;;;;;7.55;3.95;;;;;;;6.37;82.64;100932.47;2516118;28;20500;-83
2023/12/27 04:54:06;;;;;;;6.70;4.07;;;;;;;6.34;82.34;100922.94;2523697;28;20042;-81
2023/12/27 04:55:20;;;;;;;10.00;4.72;;;;;;;6.32;82.50;100923.75;2524813;28;20050;-83
2023/12/27 04:56:34;;;;;;;5.75;3.55;;;;;;;6.27;82.54;100928.91;2516640;28;20495;-81
2023/12/27 04:57:47;;;;;;;7.75;3.88;;;;;;;6.22;82.42;100922.78;2516037;28;20054;-81
2023/12/27 04:59:02;;;;;;;4.45;3.05;;;;;;;6.16;82.44;100925.28;2516189;28;20052;-82
2023/12/27 05:00:15;;;;;;;8.38;3.55;;;;;;;6.09;82.35;100932.13;2516218;28;20407;-80
2023/12/27 05:01:30;;;;;;;4.18;3.60;;;;;;;6.02;82.22;100935.47;2519105;28;20052;-82
2023/12/27 05:02:43;;;;;;;7.07;3.35;;;;;;;5.98;82.06;100937.97;2525384;28;20052;-79
2023/12/27 05:03:58;;;;;;;8.77;3.67;;;;;;;5.92;82.47;100945.63;2525734;28;20038;-81
2023/12/27 05:05:11;;;;;;;7.93;3.97;;;;;;;5.88;82.38;100945.56;2525420;28;20050;-81
2023/12/27 05:06:27;;;;;;;9.95;4.03;;;;;;;5.86;82.58;100936.03;2515666;28;20057;-82
2023/12/27 05:07:41;;;;;;;13.80;7.32;;;;;;;5.84;82.51;100940.34;2515598;28;20053;-81
2023/12/27 05:08:55;;;;;;;14.73;8.07;;;;;;;5.80;82.56;100939.41;2515166;28;20125;-80
2023/12/27 05:10:09;;;;;;;34.53;23.75;;;;;;;5.79;82.74;100937.69;2514478;28;20476;-80
2023/12/27 05:11:23;;;;;;;13.25;9.55;;;;;;;5.80;82.69;100933.34;2515319;28;20050;-81
2023/12/27 05:12:37;;;;;;;14.70;8.68;;;;;;;5.80;82.70;100934.22;2515647;28;20054;-81
2023/12/27 05:13:51;;;;;;;12.52;8.43;;;;;;;5.80;82.87;100939.41;2514537;28;20384;-80
2023/12/27 05:15:06;;;;;;;8.50;5.32;;;;;;;5.80;83.01;100935.94;2515401;28;20053;-80
2023/12/27 05:16:20;;;;;;;6.22;3.97;;;;;;;5.79;83.16;100934.22;2514872;28;20435;-80
2023/12/27 05:17:34;;;;;;;8.98;3.47;;;;;;;5.77;82.73;100933.31;2515570;28;20053;-80
2023/12/27 05:18:48;;;;;;;13.65;5.28;;;;;;;5.75;82.98;100932.41;2514898;28;20046;-82
2023/12/27 05:20:03;;;;;;;5.85;5.18;;;;;;;5.73;83.08;100924.66;2515286;28;20058;-81
2023/12/27 05:21:19;;;;;;;6.90;4.15;;;;;;;5.71;83.03;100926.34;2515373;28;20061;-79
2023/12/27 05:22:38;;;;;;;6.47;4.70;;;;;;;5.69;82.98;100921.13;2514647;28;20046;-80
2023/12/27 05:23:53;;;;;;;6.82;4.70;;;;;;;5.68;83.09;100923.69;2514902;28;20050;-80
2023/12/27 05:25:06;;;;;;;6.65;4.25;;;;;;;5.67;83.08;100925.38;2522123;28;20045;-79
2023/12/27 05:26:21;;;;;;;9.45;4.28;;;;;;;5.67;83.23;100921.94;2514287;28;20443;-81
2023/12/27 05:27:34;;;;;;;5.63;4.85;;;;;;;5.66;83.09;100925.38;2514506;28;20042;-81
2023/12/27 05:28:49;;;;;;;9.25;4.72;;;;;;;5.66;83.30;100925.38;2519931;28;20048;-81
2023/12/27 05:30:02;;;;;;;12.20;5.28;;;;;;;5.65;83.14;100921.94;2524136;28;20045;-80
2023/12/27 05:31:17;;;;;;;7.05;4.45;;;;;;;5.64;83.28;100925.34;2523727;28;20590;-80
2023/12/27 05:32:30;;;;;;;11.30;4.70;;;;;;;5.62;83.15;100927.03;2524288;28;20049;-79
2023/12/27 05:33:45;;;;;;;7.35;4.07;;;;;;;5.61;83.19;100922.72;2519199;28;20046;-79
2023/12/27 05:34:58;;;;;;;6.72;4.78;;;;;;;5.59;83.28;100924.41;2514649;28;20078;-79
2023/12/27 05:36:12;;;;;;;6.05;5.43;;;;;;;5.58;83.37;100921.81;2522119;28;20070;-80
2023/12/27 05:37:26;;;;;;;6.78;4.55;;;;;;;5.55;83.25;100920.03;2514255;28;20058;-81
2023/12/27 05:38:42;;;;;;;7.03;5.05;;;;;;;5.54;83.26;100915.69;2514088;28;20057;-79
2023/12/27 05:39:55;;;;;;;7.40;4.22;;;;;;;5.53;83.25;100919.13;2521858;28;20046;-79
2023/12/27 05:41:09;;;;;;;11.20;6.28;;;;;;;5.51;83.31;100918.25;2525733;28;20085;-78
2023/12/27 05:42:24;;;;;;;5.88;3.53;;;;;;;5.49;83.37;100919.06;2523478;28;20050;-80
2023/12/27 05:43:38;;;;;;;7.00;3.95;;;;;;;5.47;83.48;100916.44;2523884;28;20046;-79
2023/12/27 05:44:52;;;;;;;6.95;4.07;;;;;;;5.45;83.21;100916.44;2522455;28;20046;-80
2023/12/27 05:46:06;;;;;;;6.95;4.15;;;;;;;5.42;83.48;100921.56;2516155;28;20047;-81
2023/12/27 05:47:20;;;;;;;6.78;3.95;;;;;;;5.41;83.26;100916.34;2516397;28;20050;-81
2023/12/27 05:48:34;;;;;;;9.10;4.75;;;;;;;5.39;83.23;100912.84;2516289;28;20050;-80